Time,TemperatureF,DewpointF,PressureIn,WindDirection,WindDirectionDegrees,WindSpeedMPH,WindSpeedGustMPH,Humidity,HourlyPrecipIn,Conditions,Clouds,dailyrainin,SoftwareType,DateUTC
2013-01-26 00:00:00,13.5,11.4,29.75,ESE,117,0.5,1.1,91,0.00,CLR,SCT,0.00,WeatherDisplay:10.37,2013-01-26 05:00:00,
2013-01-26 00:01:00,13.5,11.1,29.75,ESE,117,0.7,1.1,90,0.00,CLR,SCT,0.00,WeatherDisplay:10.37,2013-01-26 05:01:00,
2013-01-26 00:06:00,13.7,11.3,29.75,ESE,117,0.1,1.1,90,0.00,CLR,SCT,0.00,WeatherDisplay:10.37,2013-01-26 05:06:00,
2013-01-26 00:11:00,13.9,11.5,29.75,ESE,117,0.4,2.3,90,0.00,CLR,SCT,0.00,WeatherDisplay:10.37,2013-01-26 05:11:00,
2013-01-26 00:16:00,14.0,11.6,29.75,ESE,117,0.7,1.1,90,0.00,CLR,SCT,0.00,WeatherDisplay:10.37,2013-01-26 05:16:00,
2013-01-26 00:21:00,14.0,11.6,29.74,ESE,117,0.7,1.1,90,0.00,CLR,SCT,0.00,WeatherDisplay:10.37,2013-01-26 05:21:00,
2013-01-26 00:26:00,14.0,11.6,29.74,ESE,117,0.2,1.1,90,0.00,CLR,SCT,0.00,WeatherDisplay:10.37,2013-01-26 05:26:00,
2013-01-26 00:31:00,14.0,11.4,29.74,ESE,117,0.0,0.0,89,0.00,CLR,SCT,0.00,WeatherDisplay:10.37,2013-01-26 05:31:00,
2013-01-26 00:36:00,13.8,11.2,29.74,SSE,168,0.9,2.3,89,0.00,CLR,SCT,0.00,WeatherDisplay:10.37,2013-01-26 05:36:00,
2013-01-26 00:41:00,13.7,11.1,29.74,SSE,168,0.3,1.1,89,0.00,CLR,SCT,0.00,WeatherDisplay:10.37,2013-01-26 05:41:00,
2013-01-26 00:46:00,13.5,10.6,29.74,SSE,168,0.0,0.0,88,0.00,CLR,SCT,0.00,WeatherDisplay:10.37,2013-01-26 05:46:00,
2013-01-26 00:51:00,13.4,10.5,29.74,SSE,168,0.0,0.0,88,0.00,CLR,SCT,0.00,WeatherDisplay:10.37,2013-01-26 05:51:00,
2013-01-26 00:56:00,13.3,10.4,29.74,SSE,168,0.0,0.0,88,0.00,CLR,SCT,0.00,WeatherDisplay:10.37,2013-01-26 05:56:00,
2013-01-26 01:01:00,13.1,10.2,29.74,SSE,168,0.0,0.0,88,0.00,CLR,SCT,0.00,WeatherDisplay:10.37,2013-01-26 06:01:00,
2013-01-26 01:06:00,12.9,10.0,29.74,SSE,168,0.0,0.0,88,0.00,CLR,SCT,0.00,WeatherDisplay:10.37,2013-01-26 06:06:00,
2013-01-26 01:11:00,12.7,9.8,29.74,SSE,168,0.0,0.0,88,0.00,CLR,SCT,0.00,WeatherDisplay:10.37,2013-01-26 06:11:00,
2013-01-26 01:16:00,12.6,9.7,29.74,SSE,168,0.0,0.0,88,0.00,CLR,SCT,0.00,WeatherDisplay:10.37,2013-01-26 06:16:00,
2013-01-26 01:21:00,12.4,9.8,29.74,SSE,168,0.0,0.0,89,0.00,CLR,SCT,0.00,WeatherDisplay:10.37,2013-01-26 06:21:00,
2013-01-26 01:26:00,12.3,9.7,29.74,SSE,168,0.0,0.0,89,0.00,CLR,SCT,0.00,WeatherDisplay:10.37,2013-01-26 06:26:00,
2013-01-26 01:31:00,12.2,9.6,29.74,SSE,168,0.0,0.0,89,0.00,CLR,SCT,0.00,WeatherDisplay:10.37,2013-01-26 06:31:00,
2013-01-26 01:36:00,12.2,9.6,29.74,SSE,168,0.0,0.0,89,0.00,CLR,SCT,0.00,WeatherDisplay:10.37,2013-01-26 06:36:00,
2013-01-26 01:41:00,12.2,9.6,29.74,SSE,168,0.0,0.0,89,0.00,CLR,SCT,0.00,WeatherDisplay:10.37,2013-01-26 06:41:00,
2013-01-26 01:46:00,12.2,9.8,29.74,SSE,168,0.0,0.0,90,0.00,CLR,SCT,0.00,WeatherDisplay:10.37,2013-01-26 06:46:00,
2013-01-26 01:51:00,12.2,9.8,29.74,SSE,168,0.6,1.1,90,0.00,CLR,SCT,0.00,WeatherDisplay:10.37,2013-01-26 06:51:00,
2013-01-26 01:56:00,12.2,9.8,29.74,SSE,168,0.2,1.1,90,0.00,CLR,SCT,0.00,WeatherDisplay:10.37,2013-01-26 06:56:00,
2013-01-26 02:01:00,12.4,10.3,29.74,WSW,245,1.2,2.3,91,0.00,CLR,SCT,0.00,WeatherDisplay:10.37,2013-01-26 07:01:00,
2013-01-26 02:06:00,12.6,10.5,29.74,WNW,288,0.6,1.1,91,0.00,CLR,SCT,0.00,WeatherDisplay:10.37,2013-01-26 07:06:00,
2013-01-26 02:11:00,12.7,10.6,29.74,WNW,292,0.7,1.1,91,0.00,CLR,SCT,0.00,WeatherDisplay:10.37,2013-01-26 07:11:00,
2013-01-26 02:16:00,12.8,10.7,29.74,WNW,292,0.4,1.1,91,0.00,CLR,SCT,0.00,WeatherDisplay:10.37,2013-01-26 07:16:00,
2013-01-26 02:21:00,12.9,10.8,29.74,WNW,292,0.8,2.3,91,0.00,CLR,SCT,0.00,WeatherDisplay:10.37,2013-01-26 07:21:00,
2013-01-26 02:26:00,13.0,10.9,29.73,WNW,292,0.2,1.1,91,0.00,CLR,SCT,0.00,WeatherDisplay:10.37,2013-01-26 07:26:00,
2013-01-26 02:31:00,13.0,10.6,29.73,NW,324,1.2,3.5,90,0.00,CLR,SCT,0.00,WeatherDisplay:10.37,2013-01-26 07:31:00,
2013-01-26 02:36:00,13.1,10.7,29.73,NW,324,1.0,1.1,90,0.00,CLR,SCT,0.00,WeatherDisplay:10.37,2013-01-26 07:36:00,
2013-01-26 02:41:00,13.1,10.7,29.73,NNW,328,1.9,3.5,90,0.00,CLR,SCT,0.00,WeatherDisplay:10.37,2013-01-26 07:41:00,
2013-01-26 02:46:00,13.0,10.4,29.73,NW,305,2.3,4.6,89,0.00,CLR,SCT,0.00,WeatherDisplay:10.37,2013-01-26 07:46:00,
2013-01-26 02:51:00,13.0,10.4,29.73,North,360,1.0,2.3,89,0.00,CLR,SCT,0.00,WeatherDisplay:10.37,2013-01-26 07:51:00,
2013-01-26 02:56:00,12.9,10.3,29.73,NW,323,0.6,2.3,89,0.00,CLR,SCT,0.00,WeatherDisplay:10.37,2013-01-26 07:56:00,
2013-01-26 03:01:00,12.8,9.9,29.73,WNW,299,0.9,2.3,88,0.00,CLR,SCT,0.00,WeatherDisplay:10.37,2013-01-26 08:01:00,
2013-01-26 03:06:00,12.7,9.8,29.73,WNW,302,0.6,1.1,88,0.00,CLR,SCT,0.00,WeatherDisplay:10.37,2013-01-26 08:06:00,
2013-01-26 03:11:00,12.5,9.6,29.72,WNW,299,1.7,3.5,88,0.00,CLR,SCT,0.00,WeatherDisplay:10.37,2013-01-26 08:11:00,
2013-01-26 03:16:00,12.3,9.4,29.72,NW,319,1.9,5.0,88,0.00,CLR,SCT,0.00,WeatherDisplay:10.37,2013-01-26 08:16:00,
2013-01-26 03:21:00,12.1,9.2,29.72,NW,321,1.0,2.3,88,0.00,CLR,SCT,0.00,WeatherDisplay:10.37,2013-01-26 08:21:00,
2013-01-26 03:26:00,11.9,9.0,29.72,NNW,334,1.2,2.3,88,0.00,CLR,SCT,0.00,WeatherDisplay:10.37,2013-01-26 08:26:00,
2013-01-26 03:31:00,11.8,8.9,29.73,NW,320,0.3,2.0,88,0.00,CLR,SCT,0.00,WeatherDisplay:10.37,2013-01-26 08:31:00,
2013-01-26 03:36:00,11.7,8.8,29.73,NW,320,0.6,1.1,88,0.00,CLR,SCT,0.00,WeatherDisplay:10.37,2013-01-26 08:36:00,
2013-01-26 03:41:00,11.6,9.0,29.73,NW,315,0.8,2.0,89,0.00,CLR,SCT,0.00,WeatherDisplay:10.37,2013-01-26 08:41:00,
2013-01-26 03:46:00,11.5,8.9,29.73,WNW,297,0.7,3.5,89,0.00,CLR,SCT,0.00,WeatherDisplay:10.37,2013-01-26 08:46:00,
2013-01-26 03:51:00,11.3,8.7,29.73,NNW,340,2.0,3.5,89,0.00,CLR,SCT,0.00,WeatherDisplay:10.37,2013-01-26 08:51:00,
2013-01-26 03:56:00,11.3,8.7,29.73,NNW,339,0.6,1.1,89,0.00,CLR,SCT,0.00,WeatherDisplay:10.37,2013-01-26 08:56:00,
2013-01-26 04:01:00,11.2,8.3,29.73,NNW,340,0.3,1.1,88,0.00,CLR,SCT,0.00,WeatherDisplay:10.37,2013-01-26 09:01:00,
2013-01-26 04:06:00,11.1,8.2,29.73,NNW,333,0.6,2.3,88,0.00,CLR,SCT,0.00,WeatherDisplay:10.37,2013-01-26 09:06:00,
2013-01-26 04:11:00,11.0,8.1,29.73,NNW,333,0.7,2.0,88,0.00,CLR,SCT,0.00,WeatherDisplay:10.37,2013-01-26 09:11:00,
2013-01-26 04:16:00,10.9,8.3,29.73,West,264,0.8,3.5,89,0.00,CLR,SCT,0.00,WeatherDisplay:10.37,2013-01-26 09:16:00,
2013-01-26 04:21:00,10.8,8.2,29.73,NW,317,1.5,2.3,89,0.00,CLR,SCT,0.00,WeatherDisplay:10.37,2013-01-26 09:21:00,
2013-01-26 04:26:00,10.7,8.1,29.73,NW,309,0.3,2.0,89,0.00,CLR,SCT,0.00,WeatherDisplay:10.37,2013-01-26 09:26:00,
2013-01-26 04:31:00,10.5,7.6,29.73,NW,309,0.3,1.1,88,0.00,CLR,SCT,0.00,WeatherDisplay:10.37,2013-01-26 09:31:00,
2013-01-26 04:36:00,10.5,7.6,29.73,NW,309,0.0,0.0,88,0.00,CLR,SCT,0.00,WeatherDisplay:10.37,2013-01-26 09:36:00,
2013-01-26 04:41:00,10.4,7.6,29.73,NW,309,0.0,0.0,88,0.00,CLR,SCT,0.00,WeatherDisplay:10.37,2013-01-26 09:41:00,
2013-01-26 04:46:00,10.3,7.5,29.73,NW,309,0.0,1.0,88,0.00,CLR,SCT,0.00,WeatherDisplay:10.37,2013-01-26 09:46:00,
2013-01-26 04:51:00,10.1,7.3,29.73,NW,309,0.6,1.1,88,0.00,CLR,SCT,0.00,WeatherDisplay:10.37,2013-01-26 09:51:00,
2013-01-26 04:56:00,10.0,7.4,29.74,NW,309,0.1,1.0,89,0.00,CLR,SCT,0.00,WeatherDisplay:10.37,2013-01-26 09:56:00,
2013-01-26 05:01:00,9.9,7.1,29.74,NW,309,0.6,2.3,88,0.00,CLR,SCT,0.00,WeatherDisplay:10.37,2013-01-26 10:01:00,
2013-01-26 05:06:00,9.8,7.0,29.74,NW,309,0.1,1.1,88,0.00,CLR,SCT,0.00,WeatherDisplay:10.37,2013-01-26 10:06:00,
2013-01-26 05:11:00,9.8,7.2,29.74,NW,309,0.6,1.1,89,0.00,CLR,SCT,0.00,WeatherDisplay:10.37,2013-01-26 10:11:00,
2013-01-26 05:16:00,9.8,7.0,29.74,NW,309,1.1,2.3,88,0.00,CLR,SCT,0.00,WeatherDisplay:10.37,2013-01-26 10:16:00,
2013-01-26 05:21:00,9.8,7.0,29.74,NW,306,0.2,1.1,88,0.00,CLR,SCT,0.00,WeatherDisplay:10.37,2013-01-26 10:21:00,
2013-01-26 05:26:00,9.8,7.0,29.74,NW,306,0.7,1.1,88,0.00,CLR,SCT,0.00,WeatherDisplay:10.37,2013-01-26 10:26:00,
2013-01-26 05:31:00,9.7,6.9,29.74,NW,306,0.5,1.1,88,0.00,CLR,SCT,0.00,WeatherDisplay:10.37,2013-01-26 10:31:00,
2013-01-26 05:36:00,9.6,6.8,29.75,NW,306,0.6,1.1,88,0.00,CLR,SCT,0.00,WeatherDisplay:10.37,2013-01-26 10:36:00,
2013-01-26 05:41:00,9.5,6.7,29.75,NW,306,0.5,1.1,88,0.00,CLR,SCT,0.00,WeatherDisplay:10.37,2013-01-26 10:41:00,
2013-01-26 05:46:00,9.5,6.7,29.75,NW,306,0.7,1.1,88,0.00,CLR,SCT,0.00,WeatherDisplay:10.37,2013-01-26 10:46:00,
2013-01-26 05:51:00,9.4,6.6,29.75,NW,306,1.1,2.3,88,0.00,CLR,SCT,0.00,WeatherDisplay:10.37,2013-01-26 10:51:00,
2013-01-26 05:56:00,9.4,6.6,29.75,NW,306,0.3,1.1,88,0.00,CLR,SCT,0.00,WeatherDisplay:10.37,2013-01-26 10:56:00,
2013-01-26 06:01:00,9.3,6.5,29.75,NW,306,0.5,2.3,88,0.00,CLR,SCT,0.00,WeatherDisplay:10.37,2013-01-26 11:01:00,
2013-01-26 06:06:00,9.3,6.5,29.75,NW,306,0.9,2.3,88,0.00,CLR,SCT,0.00,WeatherDisplay:10.37,2013-01-26 11:06:00,
2013-01-26 06:11:00,9.4,6.6,29.76,NW,306,1.2,2.3,88,0.00,CLR,SCT,0.00,WeatherDisplay:10.37,2013-01-26 11:11:00,
2013-01-26 06:16:00,9.5,6.7,29.76,WNW,292,0.9,3.5,88,0.00,CLR,SCT,0.00,WeatherDisplay:10.37,2013-01-26 11:16:00,
2013-01-26 06:21:00,9.6,6.5,29.76,WNW,283,1.5,3.5,87,0.00,CLR,SCT,0.00,WeatherDisplay:10.37,2013-01-26 11:21:00,
2013-01-26 06:26:00,9.7,6.6,29.76,WNW,283,1.1,2.3,87,0.00,CLR,SCT,0.00,WeatherDisplay:10.37,2013-01-26 11:26:00,
2013-01-26 06:31:00,9.7,6.6,29.76,NW,322,1.5,3.5,87,0.00,CLR,SCT,0.00,WeatherDisplay:10.37,2013-01-26 11:31:00,
2013-01-26 06:36:00,9.9,6.6,29.76,WNW,290,2.2,3.5,86,0.00,CLR,SCT,0.00,WeatherDisplay:10.37,2013-01-26 11:36:00,
2013-01-26 06:41:00,9.9,6.3,29.77,NNW,334,3.0,5.0,85,0.00,CLR,SCT,0.00,WeatherDisplay:10.37,2013-01-26 11:41:00,
2013-01-26 06:46:00,9.8,6.2,29.76,NW,313,2.0,3.5,85,0.00,CLR,SCT,0.00,WeatherDisplay:10.37,2013-01-26 11:46:00,
2013-01-26 06:51:00,9.8,6.2,29.77,NW,307,3.0,4.6,85,0.00,CLR,SCT,0.00,WeatherDisplay:10.37,2013-01-26 11:51:00,
2013-01-26 06:56:00,9.7,6.1,29.77,WNW,295,4.1,6.9,85,0.00,CLR,SCT,0.00,WeatherDisplay:10.37,2013-01-26 11:56:00,
2013-01-26 07:01:00,9.8,6.2,29.77,NW,304,3.5,5.8,85,0.00,CLR,SCT,0.00,WeatherDisplay:10.37,2013-01-26 12:01:00,
2013-01-26 07:06:00,9.8,5.9,29.77,NW,325,3.0,4.6,84,0.00,CLR,SCT,0.00,WeatherDisplay:10.37,2013-01-26 12:06:00,
2013-01-26 07:11:00,9.8,5.9,29.77,NW,311,2.3,5.0,84,0.00,CLR,SCT,0.00,WeatherDisplay:10.37,2013-01-26 12:11:00,
2013-01-26 07:16:00,9.8,5.9,29.78,WNW,286,3.4,5.8,84,0.00,CLR,SCT,0.00,WeatherDisplay:10.37,2013-01-26 12:16:00,
2013-01-26 07:21:00,9.7,5.8,29.78,NW,308,2.1,3.5,84,0.00,CLR,SCT,0.00,WeatherDisplay:10.37,2013-01-26 12:21:00,
2013-01-26 07:26:00,9.7,5.8,29.78,NW,311,1.5,2.3,84,0.00,CLR,SCT,0.00,WeatherDisplay:10.37,2013-01-26 12:26:00,
2013-01-26 07:31:00,9.5,5.6,29.79,NW,315,2.2,4.6,84,0.00,CLR,SCT,0.00,WeatherDisplay:10.37,2013-01-26 12:31:00,
2013-01-26 07:36:00,9.6,5.7,29.79,WNW,300,3.1,5.0,84,0.00,CLR,SCT,0.00,WeatherDisplay:10.37,2013-01-26 12:36:00,
2013-01-26 07:41:00,9.7,5.8,29.79,NW,319,3.8,5.0,84,0.00,CLR,SCT,0.00,WeatherDisplay:10.37,2013-01-26 12:41:00,
2013-01-26 07:46:00,9.7,5.6,29.79,NW,310,2.1,3.5,83,0.00,CLR,SCT,0.00,WeatherDisplay:10.37,2013-01-26 12:46:00,
2013-01-26 07:51:00,9.6,5.7,29.79,WNW,303,2.6,5.0,84,0.00,CLR,SCT,0.00,WeatherDisplay:10.37,2013-01-26 12:51:00,
2013-01-26 07:56:00,9.7,5.8,29.79,NW,309,1.3,3.5,84,0.00,CLR,SCT,0.00,WeatherDisplay:10.37,2013-01-26 12:56:00,
2013-01-26 08:01:00,9.8,5.7,29.80,NW,314,1.5,2.3,83,0.00,CLR,SCT,0.00,WeatherDisplay:10.37,2013-01-26 13:01:00,
2013-01-26 08:06:00,9.8,5.9,29.80,NW,314,1.6,2.3,84,0.00,CLR,SCT,0.00,WeatherDisplay:10.37,2013-01-26 13:06:00,
2013-01-26 08:11:00,9.8,5.7,29.80,West,281,1.9,4.6,83,0.00,CLR,SCT,0.00,WeatherDisplay:10.37,2013-01-26 13:11:00,
2013-01-26 08:16:00,9.8,5.7,29.81,West,281,0.8,2.3,83,0.00,CLR,SCT,0.00,WeatherDisplay:10.37,2013-01-26 13:16:00,
2013-01-26 08:21:00,9.9,5.8,29.81,NW,307,1.2,3.0,83,0.00,CLR,SCT,0.00,WeatherDisplay:10.37,2013-01-26 13:21:00,
2013-01-26 08:26:00,10.2,6.3,29.81,NW,316,5.8,7.0,84,0.00,CLR,SCT,0.00,WeatherDisplay:10.37,2013-01-26 13:26:00,
2013-01-26 08:31:00,10.4,6.3,29.81,NW,319,2.8,5.8,83,0.00,CLR,SCT,0.00,WeatherDisplay:10.37,2013-01-26 13:31:00,
2013-01-26 08:36:00,10.5,6.1,29.81,WNW,294,3.0,4.6,82,0.00,CLR,SCT,0.00,WeatherDisplay:10.37,2013-01-26 13:36:00,
2013-01-26 08:41:00,10.5,6.1,29.81,WNW,287,2.9,4.0,82,0.00,CLR,SCT,0.00,WeatherDisplay:10.37,2013-01-26 13:41:00,
2013-01-26 08:46:00,10.6,6.2,29.82,NW,306,3.7,6.0,82,0.00,CLR,SCT,0.00,WeatherDisplay:10.37,2013-01-26 13:46:00,
2013-01-26 08:51:00,10.7,6.0,29.81,WNW,294,5.4,8.1,81,0.00,CLR,SCT,0.00,WeatherDisplay:10.37,2013-01-26 13:51:00,
2013-01-26 08:56:00,10.8,6.4,29.82,NW,320,3.2,3.5,82,0.00,CLR,SCT,0.00,WeatherDisplay:10.37,2013-01-26 13:56:00,
2013-01-26 09:01:00,10.9,6.2,29.82,WNW,284,3.7,5.0,81,0.00,CLR,SCT,0.00,WeatherDisplay:10.37,2013-01-26 14:01:00,
2013-01-26 09:06:00,11.1,6.4,29.82,NW,304,4.1,6.0,81,0.00,CLR,SCT,0.00,WeatherDisplay:10.37,2013-01-26 14:06:00,
2013-01-26 09:11:00,11.1,6.1,29.82,WNW,302,3.7,8.1,80,0.00,CLR,SCT,0.00,WeatherDisplay:10.37,2013-01-26 14:11:00,
2013-01-26 09:16:00,11.2,6.2,29.82,WNW,294,1.6,3.5,80,0.00,CLR,SCT,0.00,WeatherDisplay:10.37,2013-01-26 14:16:00,
2013-01-26 09:21:00,11.3,6.3,29.82,North,355,3.1,4.6,80,0.00,CLR,SCT,0.00,WeatherDisplay:10.37,2013-01-26 14:21:00,
2013-01-26 09:26:00,11.4,6.4,29.82,NW,317,4.7,8.1,80,0.00,CLR,SCT,0.00,WeatherDisplay:10.37,2013-01-26 14:26:00,
2013-01-26 09:31:00,11.5,6.2,29.82,WNW,294,2.6,4.6,79,0.00,CLR,SCT,0.00,WeatherDisplay:10.37,2013-01-26 14:31:00,
2013-01-26 09:36:00,11.6,6.3,29.82,WNW,300,1.9,3.5,79,0.00,CLR,SCT,0.00,WeatherDisplay:10.37,2013-01-26 14:36:00,
2013-01-26 09:41:00,11.9,6.9,29.82,NNW,333,3.5,5.8,80,0.00,CLR,SCT,0.00,WeatherDisplay:10.37,2013-01-26 14:41:00,
2013-01-26 09:46:00,12.2,6.9,29.83,North,355,5.0,12.7,79,0.00,CLR,SCT,0.00,WeatherDisplay:10.37,2013-01-26 14:46:00,
2013-01-26 09:51:00,12.2,6.9,29.83,WNW,286,4.0,6.9,79,0.00,CLR,SCT,0.00,WeatherDisplay:10.37,2013-01-26 14:51:00,
2013-01-26 09:56:00,12.3,7.0,29.83,NW,324,5.5,9.2,79,0.00,CLR,SCT,0.00,WeatherDisplay:10.37,2013-01-26 14:56:00,
2013-01-26 10:01:00,12.4,6.8,29.83,NNW,335,4.5,5.8,78,0.00,CLR,SCT,0.00,WeatherDisplay:10.37,2013-01-26 15:01:00,
2013-01-26 10:06:00,12.6,7.0,29.83,NW,309,3.2,6.9,78,0.00,CLR,SCT,0.00,WeatherDisplay:10.37,2013-01-26 15:06:00,
2013-01-26 10:11:00,12.8,7.2,29.83,West,277,3.5,5.8,78,0.00,CLR,SCT,0.00,WeatherDisplay:10.37,2013-01-26 15:11:00,
2013-01-26 10:16:00,12.6,6.8,29.83,WNW,296,4.9,5.8,77,0.00,CLR,SCT,0.00,WeatherDisplay:10.37,2013-01-26 15:16:00,
2013-01-26 10:21:00,12.8,6.9,29.83,NW,315,6.3,10.4,77,0.00,CLR,SCT,0.00,WeatherDisplay:10.37,2013-01-26 15:21:00,
2013-01-26 10:26:00,12.9,6.8,29.83,WNW,300,5.8,8.1,76,0.00,CLR,SCT,0.00,WeatherDisplay:10.37,2013-01-26 15:26:00,
2013-01-26 10:31:00,13.2,7.0,29.83,NW,305,3.9,8.1,76,0.00,CLR,SCT,0.00,WeatherDisplay:10.37,2013-01-26 15:31:00,
2013-01-26 10:36:00,13.4,7.0,29.83,NNW,338,3.7,7.0,75,0.00,CLR,SCT,0.00,WeatherDisplay:10.37,2013-01-26 15:36:00,
2013-01-26 10:41:00,13.4,7.0,29.83,NW,314,5.5,9.2,75,0.00,CLR,SCT,0.00,WeatherDisplay:10.37,2013-01-26 15:41:00,
2013-01-26 10:46:00,13.7,7.5,29.83,WNW,284,3.8,5.8,76,0.00,CLR,SCT,0.00,WeatherDisplay:10.37,2013-01-26 15:46:00,
2013-01-26 10:51:00,14.0,7.8,29.83,West,279,3.6,7.0,76,0.00,CLR,SCT,0.00,WeatherDisplay:10.37,2013-01-26 15:51:00,
2013-01-26 10:56:00,14.1,7.3,29.83,WNW,288,5.8,9.2,74,0.00,CLR,SCT,0.00,WeatherDisplay:10.37,2013-01-26 15:56:00,
2013-01-26 11:01:00,14.1,7.3,29.83,WNW,303,3.4,8.0,74,0.00,CLR,SCT,0.00,WeatherDisplay:10.37,2013-01-26 16:01:00,
2013-01-26 11:06:00,14.3,7.5,29.83,West,269,3.9,6.0,74,0.00,CLR,SCT,0.00,WeatherDisplay:10.37,2013-01-26 16:06:00,
2013-01-26 11:11:00,14.4,7.6,29.83,WNW,291,2.4,5.0,74,0.00,CLR,SCT,0.00,WeatherDisplay:10.37,2013-01-26 16:11:00,
2013-01-26 11:16:00,14.8,8.0,29.83,NW,306,3.5,4.6,74,0.00,CLR,SCT,0.00,WeatherDisplay:10.37,2013-01-26 16:16:00,
2013-01-26 11:21:00,15.3,8.2,29.83,NW,305,1.4,4.0,73,0.00,CLR,SCT,0.00,WeatherDisplay:10.37,2013-01-26 16:21:00,
2013-01-26 11:26:00,15.8,8.4,29.83,NW,321,2.8,6.0,72,0.00,CLR,SCT,0.00,WeatherDisplay:10.37,2013-01-26 16:26:00,
2013-01-26 11:31:00,15.6,7.6,29.83,NNW,327,3.8,8.1,70,0.00,CLR,SCT,0.00,WeatherDisplay:10.37,2013-01-26 16:31:00,
2013-01-26 11:36:00,15.4,7.0,29.83,NW,326,7.7,11.5,69,0.00,CLR,SCT,0.00,WeatherDisplay:10.37,2013-01-26 16:36:00,
2013-01-26 11:41:00,15.4,7.0,29.83,WSW,252,4.7,7.0,69,0.00,CLR,SCT,0.00,WeatherDisplay:10.37,2013-01-26 16:41:00,
2013-01-26 11:46:00,15.4,7.4,29.83,WNW,300,4.9,6.9,70,0.00,CLR,SCT,0.00,WeatherDisplay:10.37,2013-01-26 16:46:00,
2013-01-26 11:51:00,15.6,7.2,29.82,West,277,4.0,7.0,69,0.00,CLR,SCT,0.00,WeatherDisplay:10.37,2013-01-26 16:51:00,
2013-01-26 11:56:00,15.5,7.1,29.83,NNW,340,5.4,6.9,69,0.00,CLR,SCT,0.00,WeatherDisplay:10.37,2013-01-26 16:56:00,
2013-01-26 12:01:00,15.6,6.6,29.83,NW,311,4.9,6.9,67,0.00,CLR,SCT,0.00,WeatherDisplay:10.37,2013-01-26 17:01:00,
2013-01-26 12:06:00,15.7,7.0,29.83,NW,304,6.2,6.9,68,0.00,CLR,SCT,0.00,WeatherDisplay:10.37,2013-01-26 17:06:00,
2013-01-26 12:11:00,15.9,7.2,29.82,WNW,284,4.8,6.9,68,0.00,CLR,SCT,0.00,WeatherDisplay:10.37,2013-01-26 17:11:00,
2013-01-26 12:16:00,16.3,7.6,29.82,NNW,331,1.4,4.0,68,0.00,CLR,SCT,0.00,WeatherDisplay:10.37,2013-01-26 17:16:00,
2013-01-26 12:21:00,16.9,7.5,29.82,West,277,4.3,10.4,66,0.00,CLR,SCT,0.00,WeatherDisplay:10.37,2013-01-26 17:21:00,
2013-01-26 12:26:00,17.0,7.3,29.82,NNW,331,3.9,5.0,65,0.00,CLR,SCT,0.00,WeatherDisplay:10.37,2013-01-26 17:26:00,
2013-01-26 12:31:00,17.1,7.0,29.82,NW,308,1.9,6.0,64,0.00,CLR,SCT,0.00,WeatherDisplay:10.37,2013-01-26 17:31:00,
2013-01-26 12:36:00,17.1,6.7,29.82,NNW,343,2.7,5.8,63,0.00,CLR,SCT,0.00,WeatherDisplay:10.37,2013-01-26 17:36:00,
2013-01-26 12:41:00,17.1,6.3,29.81,NW,318,4.5,5.8,62,0.00,CLR,SCT,0.00,WeatherDisplay:10.37,2013-01-26 17:41:00,
2013-01-26 12:46:00,17.1,6.3,29.81,NW,308,4.1,6.9,62,0.00,CLR,SCT,0.00,WeatherDisplay:10.37,2013-01-26 17:46:00,
2013-01-26 12:51:00,17.3,6.1,29.81,West,267,6.9,11.5,61,0.00,CLR,SCT,0.00,WeatherDisplay:10.37,2013-01-26 17:51:00,
2013-01-26 12:56:00,17.5,5.2,29.81,West,275,5.0,6.9,58,0.00,CLR,SCT,0.00,WeatherDisplay:10.37,2013-01-26 17:56:00,
2013-01-26 13:01:00,18.5,6.2,29.81,West,273,6.1,11.5,58,0.00,CLR,SCT,0.00,WeatherDisplay:10.37,2013-01-26 18:01:00,
2013-01-26 13:06:00,18.8,6.1,29.80,NW,313,3.0,4.6,57,0.00,CLR,SCT,0.00,WeatherDisplay:10.37,2013-01-26 18:06:00,
2013-01-26 13:11:00,18.3,4.8,29.80,West,261,3.2,5.8,55,0.00,CLR,SCT,0.00,WeatherDisplay:10.37,2013-01-26 18:11:00,
2013-01-26 13:16:00,18.8,5.7,29.80,WNW,303,4.9,5.8,56,0.00,CLR,SCT,0.00,WeatherDisplay:10.37,2013-01-26 18:16:00,
2013-01-26 13:21:00,18.4,4.5,29.80,NW,311,4.2,5.8,54,0.00,CLR,SCT,0.00,WeatherDisplay:10.37,2013-01-26 18:21:00,
2013-01-26 13:26:00,19.1,6.0,29.79,WNW,293,6.0,8.1,56,0.00,CLR,SCT,0.00,WeatherDisplay:10.37,2013-01-26 18:26:00,
2013-01-26 13:31:00,19.5,6.3,29.80,WSW,257,2.7,3.5,56,0.00,CLR,SCT,0.00,WeatherDisplay:10.37,2013-01-26 18:31:00,
2013-01-26 13:36:00,19.6,6.0,29.80,North,5,4.6,9.2,55,0.00,CLR,SCT,0.00,WeatherDisplay:10.37,2013-01-26 18:36:00,
2013-01-26 13:41:00,19.6,5.2,29.80,NW,317,4.1,8.1,53,0.00,CLR,SCT,0.00,WeatherDisplay:10.37,2013-01-26 18:41:00,
2013-01-26 13:46:00,19.3,4.5,29.80,North,349,6.6,10.4,52,0.00,CLR,SCT,0.00,WeatherDisplay:10.37,2013-01-26 18:46:00,
2013-01-26 13:51:00,19.3,4.1,29.81,WNW,296,4.1,8.1,51,0.00,CLR,SCT,0.00,WeatherDisplay:10.37,2013-01-26 18:51:00,
2013-01-26 13:56:00,19.7,5.3,29.81,NNW,346,4.8,11.5,53,0.00,CLR,SCT,0.00,WeatherDisplay:10.37,2013-01-26 18:56:00,
2013-01-26 14:01:00,20.2,5.8,29.81,NW,319,2.1,3.5,53,0.00,CLR,SCT,0.00,WeatherDisplay:10.37,2013-01-26 19:01:00,
2013-01-26 14:06:00,20.1,4.8,29.81,WNW,298,3.9,5.8,51,0.00,CLR,SCT,0.00,WeatherDisplay:10.37,2013-01-26 19:06:00,
2013-01-26 14:11:00,20.2,4.9,29.81,WNW,285,2.3,3.5,51,0.00,CLR,SCT,0.00,WeatherDisplay:10.37,2013-01-26 19:11:00,
2013-01-26 14:16:00,20.7,5.8,29.81,WNW,292,4.9,7.0,52,0.00,CLR,SCT,0.00,WeatherDisplay:10.37,2013-01-26 19:16:00,
2013-01-26 14:21:00,20.2,6.2,29.81,NW,319,5.3,6.9,54,0.00,CLR,SCT,0.00,WeatherDisplay:10.37,2013-01-26 19:21:00,
2013-01-26 14:26:00,20.0,6.0,29.81,NW,318,6.8,11.5,54,0.00,CLR,SCT,0.00,WeatherDisplay:10.37,2013-01-26 19:26:00,
2013-01-26 14:31:00,20.0,5.6,29.81,NNW,341,7.1,9.2,53,0.00,CLR,SCT,0.00,WeatherDisplay:10.37,2013-01-26 19:31:00,
2013-01-26 14:36:00,20.1,5.7,29.81,NNW,331,6.1,8.1,53,0.00,CLR,SCT,0.00,WeatherDisplay:10.37,2013-01-26 19:36:00,
2013-01-26 14:41:00,20.2,6.6,29.82,West,271,4.8,6.9,55,0.00,CLR,SCT,0.00,WeatherDisplay:10.37,2013-01-26 19:41:00,
2013-01-26 14:46:00,20.1,6.5,29.82,NW,318,7.5,11.5,55,0.00,CLR,SCT,0.00,WeatherDisplay:10.37,2013-01-26 19:46:00,
2013-01-26 14:51:00,20.1,6.9,29.82,NNE,12,7.0,11.5,56,0.00,CLR,SCT,0.00,WeatherDisplay:10.37,2013-01-26 19:51:00,
2013-01-26 14:56:00,19.9,6.3,29.82,WNW,290,7.5,11.5,55,0.00,CLR,SCT,0.00,WeatherDisplay:10.37,2013-01-26 19:56:00,
2013-01-26 15:01:00,20.0,6.0,29.82,WNW,284,4.4,8.1,54,0.00,CLR,SCT,0.00,WeatherDisplay:10.37,2013-01-26 20:01:00,
2013-01-26 15:06:00,20.0,6.4,29.82,WNW,296,6.0,11.5,55,0.00,CLR,SCT,0.00,WeatherDisplay:10.37,2013-01-26 20:06:00,
2013-01-26 15:11:00,19.9,6.7,29.83,WNW,285,6.3,8.1,56,0.00,CLR,SCT,0.00,WeatherDisplay:10.37,2013-01-26 20:11:00,
2013-01-26 15:16:00,20.0,6.4,29.83,NW,307,5.0,9.2,55,0.00,CLR,SCT,0.00,WeatherDisplay:10.37,2013-01-26 20:16:00,
2013-01-26 15:21:00,20.0,6.0,29.83,NW,313,5.0,8.1,54,0.00,CLR,SCT,0.00,WeatherDisplay:10.37,2013-01-26 20:21:00,
2013-01-26 15:26:00,20.0,6.4,29.83,NNW,333,5.7,8.0,55,0.00,CLR,SCT,0.00,WeatherDisplay:10.37,2013-01-26 20:26:00,
2013-01-26 15:31:00,20.0,6.0,29.83,NW,311,6.9,9.2,54,0.00,CLR,SCT,0.00,WeatherDisplay:10.37,2013-01-26 20:31:00,
2013-01-26 15:36:00,20.0,6.4,29.84,WNW,296,5.1,9.2,55,0.00,CLR,SCT,0.00,WeatherDisplay:10.37,2013-01-26 20:36:00,
2013-01-26 15:41:00,20.0,5.6,29.84,WNW,302,4.0,5.8,53,0.00,CLR,SCT,0.00,WeatherDisplay:10.37,2013-01-26 20:41:00,
2013-01-26 15:46:00,20.0,5.6,29.84,WNW,293,8.7,11.5,53,0.00,CLR,SCT,0.00,WeatherDisplay:10.37,2013-01-26 20:46:00,
2013-01-26 15:51:00,19.9,5.9,29.84,North,360,4.8,7.0,54,0.00,CLR,SCT,0.00,WeatherDisplay:10.37,2013-01-26 20:51:00,
2013-01-26 15:56:00,19.8,6.2,29.84,West,275,4.7,8.1,55,0.00,CLR,SCT,0.00,WeatherDisplay:10.37,2013-01-26 20:56:00,
2013-01-26 16:01:00,19.8,5.4,29.84,NNW,334,6.3,8.1,53,0.00,CLR,SCT,0.00,WeatherDisplay:10.37,2013-01-26 21:01:00,
2013-01-26 16:06:00,19.6,5.2,29.84,West,275,7.4,11.5,53,0.00,CLR,SCT,0.00,WeatherDisplay:10.37,2013-01-26 21:06:00,
2013-01-26 16:11:00,19.5,5.5,29.85,WNW,285,6.6,10.4,54,0.00,CLR,SCT,0.00,WeatherDisplay:10.37,2013-01-26 21:11:00,
2013-01-26 16:16:00,19.5,5.9,29.84,WNW,288,3.7,6.9,55,0.00,CLR,SCT,0.00,WeatherDisplay:10.37,2013-01-26 21:16:00,
2013-01-26 16:21:00,19.4,5.8,29.84,NNW,328,4.1,4.6,55,0.00,CLR,SCT,0.00,WeatherDisplay:10.37,2013-01-26 21:21:00,
2013-01-26 16:26:00,19.4,5.4,29.85,NW,308,4.4,5.8,54,0.00,CLR,SCT,0.00,WeatherDisplay:10.37,2013-01-26 21:26:00,
2013-01-26 16:31:00,19.5,5.5,29.84,NNE,26,5.0,10.4,54,0.00,CLR,SCT,0.00,WeatherDisplay:10.37,2013-01-26 21:31:00,
2013-01-26 16:36:00,19.4,5.8,29.85,WSW,253,3.4,6.9,55,0.00,CLR,SCT,0.00,WeatherDisplay:10.37,2013-01-26 21:36:00,
2013-01-26 16:41:00,19.4,5.4,29.85,NNW,346,4.8,11.0,54,0.00,CLR,SCT,0.00,WeatherDisplay:10.37,2013-01-26 21:41:00,
2013-01-26 16:46:00,19.5,5.1,29.85,WNW,293,4.6,8.0,53,0.00,CLR,SCT,0.00,WeatherDisplay:10.37,2013-01-26 21:46:00,
2013-01-26 16:51:00,19.5,4.7,29.86,WNW,302,5.4,6.9,52,0.00,CLR,SCT,0.00,WeatherDisplay:10.37,2013-01-26 21:51:00,
2013-01-26 16:56:00,19.4,4.6,29.86,NW,322,3.8,5.8,52,0.00,CLR,SCT,0.00,WeatherDisplay:10.37,2013-01-26 21:56:00,
2013-01-26 17:01:00,19.1,4.3,29.86,NW,306,3.8,5.8,52,0.00,CLR,SCT,0.00,WeatherDisplay:10.37,2013-01-26 22:01:00,
2013-01-26 17:06:00,18.9,4.6,29.87,NW,309,2.8,4.6,53,0.00,CLR,SCT,0.00,WeatherDisplay:10.37,2013-01-26 22:06:00,
2013-01-26 17:11:00,18.6,4.3,29.87,WNW,298,5.5,9.2,53,0.00,CLR,SCT,0.00,WeatherDisplay:10.37,2013-01-26 22:11:00,
2013-01-26 17:16:00,18.6,3.9,29.87,NW,313,4.0,5.8,52,0.00,CLR,SCT,0.00,WeatherDisplay:10.37,2013-01-26 22:16:00,
2013-01-26 17:21:00,18.4,4.1,29.88,NW,304,4.8,8.1,53,0.00,CLR,SCT,0.00,WeatherDisplay:10.37,2013-01-26 22:21:00,
2013-01-26 17:26:00,18.5,3.4,29.88,WNW,284,7.0,11.5,51,0.00,CLR,SCT,0.00,WeatherDisplay:10.37,2013-01-26 22:26:00,
2013-01-26 17:31:00,18.4,3.7,29.89,NW,307,4.3,4.6,52,0.00,CLR,SCT,0.00,WeatherDisplay:10.37,2013-01-26 22:31:00,
2013-01-26 17:36:00,18.2,3.9,29.89,WNW,298,5.9,9.2,53,0.00,CLR,SCT,0.00,WeatherDisplay:10.37,2013-01-26 22:36:00,
2013-01-26 17:41:00,18.2,3.9,29.89,WNW,302,5.2,6.9,53,0.00,CLR,SCT,0.00,WeatherDisplay:10.37,2013-01-26 22:41:00,
2013-01-26 17:46:00,18.0,3.3,29.89,WNW,297,5.3,9.2,52,0.00,CLR,SCT,0.00,WeatherDisplay:10.37,2013-01-26 22:46:00,
2013-01-26 17:51:00,17.7,3.8,29.90,NW,319,4.5,8.0,54,0.00,CLR,SCT,0.00,WeatherDisplay:10.37,2013-01-26 22:51:00,
2013-01-26 17:56:00,17.7,3.4,29.90,NW,308,3.7,5.8,53,0.00,CLR,SCT,0.00,WeatherDisplay:10.37,2013-01-26 22:56:00,
2013-01-26 18:01:00,17.5,3.7,29.91,NNW,332,4.7,9.0,54,0.00,CLR,SCT,0.00,WeatherDisplay:10.37,2013-01-26 23:01:00,
2013-01-26 18:06:00,17.5,2.8,29.91,North,355,6.1,10.4,52,0.00,CLR,SCT,0.00,WeatherDisplay:10.37,2013-01-26 23:06:00,
2013-01-26 18:11:00,17.4,2.8,29.91,WSW,243,5.5,8.1,52,0.00,CLR,SCT,0.00,WeatherDisplay:10.37,2013-01-26 23:11:00,
2013-01-26 18:16:00,17.4,2.3,29.91,NNW,334,6.0,9.2,51,0.00,CLR,SCT,0.00,WeatherDisplay:10.37,2013-01-26 23:16:00,
2013-01-26 18:21:00,17.2,2.6,29.92,NNE,15,4.0,6.0,52,0.00,CLR,SCT,0.00,WeatherDisplay:10.37,2013-01-26 23:21:00,
2013-01-26 18:26:00,17.2,2.6,29.92,WNW,299,3.4,5.8,52,0.00,CLR,SCT,0.00,WeatherDisplay:10.37,2013-01-26 23:26:00,
2013-01-26 18:31:00,16.9,2.7,29.92,NW,310,4.4,11.0,53,0.00,CLR,SCT,0.00,WeatherDisplay:10.37,2013-01-26 23:31:00,
2013-01-26 18:36:00,16.8,2.6,29.92,NNW,331,5.4,11.5,53,0.00,CLR,SCT,0.00,WeatherDisplay:10.37,2013-01-26 23:36:00,
2013-01-26 18:41:00,16.8,1.8,29.93,NW,304,3.8,6.9,51,0.00,CLR,SCT,0.00,WeatherDisplay:10.37,2013-01-26 23:41:00,
2013-01-26 18:46:00,16.8,1.8,29.93,West,281,7.2,12.7,51,0.00,CLR,SCT,0.00,WeatherDisplay:10.37,2013-01-26 23:46:00,
2013-01-26 18:51:00,16.8,2.2,29.93,NW,319,3.6,6.0,52,0.00,CLR,SCT,0.00,WeatherDisplay:10.37,2013-01-26 23:51:00,
2013-01-26 18:56:00,16.6,2.8,29.93,NNW,337,3.7,7.0,54,0.00,CLR,SCT,0.00,WeatherDisplay:10.37,2013-01-26 23:56:00,
2013-01-26 19:01:00,16.5,2.3,29.93,WNW,283,4.3,5.8,53,0.00,CLR,SCT,0.00,WeatherDisplay:10.37,2013-01-27 00:01:00,
2013-01-26 19:06:00,16.4,1.8,29.93,WNW,302,4.5,6.9,52,0.00,CLR,SCT,0.00,WeatherDisplay:10.37,2013-01-27 00:06:00,
2013-01-26 19:11:00,16.3,2.1,29.94,NW,318,6.2,9.2,53,0.00,CLR,SCT,0.00,WeatherDisplay:10.37,2013-01-27 00:11:00,
2013-01-26 19:16:00,16.2,2.0,29.93,NW,311,6.9,11.0,53,0.00,CLR,SCT,0.00,WeatherDisplay:10.37,2013-01-27 00:16:00,
2013-01-26 19:21:00,16.2,2.0,29.94,WNW,298,4.0,6.0,53,0.00,CLR,SCT,0.00,WeatherDisplay:10.37,2013-01-27 00:21:00,
2013-01-26 19:26:00,16.1,1.9,29.93,West,273,4.2,4.6,53,0.00,CLR,SCT,0.00,WeatherDisplay:10.37,2013-01-27 00:26:00,
2013-01-26 19:31:00,15.9,2.2,29.94,WNW,292,2.4,4.6,54,0.00,CLR,SCT,0.00,WeatherDisplay:10.37,2013-01-27 00:31:00,
2013-01-26 19:36:00,15.7,2.4,29.94,NW,323,2.1,4.6,55,0.00,CLR,SCT,0.00,WeatherDisplay:10.37,2013-01-27 00:36:00,
2013-01-26 19:41:00,15.5,2.2,29.94,NW,307,3.4,8.1,55,0.00,CLR,SCT,0.00,WeatherDisplay:10.37,2013-01-27 00:41:00,
2013-01-26 19:46:00,15.5,2.2,29.94,West,281,5.4,7.0,55,0.00,CLR,SCT,0.00,WeatherDisplay:10.37,2013-01-27 00:46:00,
2013-01-26 19:51:00,15.5,2.2,29.94,WNW,295,3.3,7.0,55,0.00,CLR,SCT,0.00,WeatherDisplay:10.37,2013-01-27 00:51:00,
2013-01-26 19:56:00,15.5,2.2,29.94,NW,316,3.4,5.8,55,0.00,CLR,SCT,0.00,WeatherDisplay:10.37,2013-01-27 00:56:00,
2013-01-26 20:01:00,15.4,2.1,29.94,West,263,3.1,4.6,55,0.00,CLR,SCT,0.00,WeatherDisplay:10.37,2013-01-27 01:01:00,
2013-01-26 20:06:00,15.2,2.7,29.95,West,281,4.9,9.2,57,0.00,CLR,SCT,0.00,WeatherDisplay:10.37,2013-01-27 01:06:00,
2013-01-26 20:11:00,15.1,2.2,29.95,NNW,327,7.1,10.4,56,0.00,CLR,SCT,0.00,WeatherDisplay:10.37,2013-01-27 01:11:00,
2013-01-26 20:16:00,15.1,2.2,29.95,NW,321,5.2,8.1,56,0.00,CLR,SCT,0.00,WeatherDisplay:10.37,2013-01-27 01:16:00,
2013-01-26 20:21:00,15.1,2.2,29.95,NNW,335,3.7,6.9,56,0.00,CLR,SCT,0.00,WeatherDisplay:10.37,2013-01-27 01:21:00,
2013-01-26 20:26:00,15.0,2.5,29.95,West,268,5.0,5.8,57,0.00,CLR,SCT,0.00,WeatherDisplay:10.37,2013-01-27 01:26:00,
2013-01-26 20:31:00,14.8,2.3,29.96,North,360,2.5,4.6,57,0.00,CLR,SCT,0.00,WeatherDisplay:10.37,2013-01-27 01:31:00,
2013-01-26 20:36:00,14.7,2.2,29.96,NW,323,2.2,4.6,57,0.00,CLR,SCT,0.00,WeatherDisplay:10.37,2013-01-27 01:36:00,
2013-01-26 20:41:00,14.5,2.4,29.96,NNW,331,3.2,4.6,58,0.00,CLR,SCT,0.00,WeatherDisplay:10.37,2013-01-27 01:41:00,
2013-01-26 20:46:00,14.5,2.4,29.96,NNW,342,2.1,6.0,58,0.00,CLR,SCT,0.00,WeatherDisplay:10.37,2013-01-27 01:46:00,
2013-01-26 20:51:00,14.4,2.3,29.96,NW,313,4.1,6.9,58,0.00,CLR,SCT,0.00,WeatherDisplay:10.37,2013-01-27 01:51:00,
2013-01-26 20:56:00,14.4,2.3,29.97,NW,312,3.4,5.8,58,0.00,CLR,SCT,0.00,WeatherDisplay:10.37,2013-01-27 01:56:00,
2013-01-26 21:01:00,14.3,2.6,29.97,West,277,6.1,7.0,59,0.00,CLR,SCT,0.00,WeatherDisplay:10.37,2013-01-27 02:01:00,
2013-01-26 21:06:00,14.3,2.6,29.97,NNW,329,1.9,5.8,59,0.00,CLR,SCT,0.00,WeatherDisplay:10.37,2013-01-27 02:06:00,
2013-01-26 21:11:00,14.3,2.6,29.97,West,281,2.8,5.8,59,0.00,CLR,SCT,0.00,WeatherDisplay:10.37,2013-01-27 02:11:00,
2013-01-26 21:16:00,14.1,2.7,29.98,WNW,292,2.5,5.8,60,0.00,CLR,SCT,0.00,WeatherDisplay:10.37,2013-01-27 02:16:00,
2013-01-26 21:21:00,14.0,2.7,29.98,WNW,302,6.1,9.2,60,0.00,CLR,SCT,0.00,WeatherDisplay:10.37,2013-01-27 02:21:00,
2013-01-26 21:26:00,14.1,2.7,29.98,WNW,300,5.4,10.4,60,0.00,CLR,SCT,0.00,WeatherDisplay:10.37,2013-01-27 02:26:00,
2013-01-26 21:31:00,14.1,3.1,29.99,NW,309,2.5,4.6,61,0.00,CLR,SCT,0.00,WeatherDisplay:10.37,2013-01-27 02:31:00,
2013-01-26 21:36:00,14.1,2.7,29.99,WNW,302,4.7,6.0,60,0.00,CLR,SCT,0.00,WeatherDisplay:10.37,2013-01-27 02:36:00,
2013-01-26 21:41:00,14.0,3.0,29.99,WSW,257,4.1,5.8,61,0.00,CLR,SCT,0.00,WeatherDisplay:10.37,2013-01-27 02:41:00,
2013-01-26 21:46:00,13.9,2.9,29.99,WNW,302,2.0,5.8,61,0.00,CLR,SCT,0.00,WeatherDisplay:10.37,2013-01-27 02:46:00,
2013-01-26 21:51:00,13.9,2.9,29.99,West,261,3.5,4.6,61,0.00,CLR,SCT,0.00,WeatherDisplay:10.37,2013-01-27 02:51:00,
2013-01-26 21:56:00,13.8,2.8,30.00,NW,317,4.2,6.9,61,0.00,CLR,SCT,0.00,WeatherDisplay:10.37,2013-01-27 02:56:00,
2013-01-26 22:01:00,13.9,2.9,30.00,WNW,294,3.8,5.8,61,0.00,CLR,SCT,0.00,WeatherDisplay:10.37,2013-01-27 03:01:00,
2013-01-26 22:06:00,13.9,2.9,30.00,WNW,285,4.9,8.1,61,0.00,CLR,SCT,0.00,WeatherDisplay:10.37,2013-01-27 03:06:00,
2013-01-26 22:11:00,14.0,3.4,29.99,NW,309,4.5,6.9,62,0.00,CLR,SCT,0.00,WeatherDisplay:10.37,2013-01-27 03:11:00,
2013-01-26 22:16:00,14.0,3.4,29.99,West,281,5.6,6.9,62,0.00,CLR,SCT,0.00,WeatherDisplay:10.37,2013-01-27 03:16:00,
2013-01-26 22:21:00,14.0,3.4,30.00,WNW,302,3.0,5.8,62,0.00,CLR,SCT,0.00,WeatherDisplay:10.37,2013-01-27 03:21:00,
2013-01-26 22:26:00,14.0,3.4,30.00,NNW,336,5.0,6.9,62,0.00,CLR,SCT,0.00,WeatherDisplay:10.37,2013-01-27 03:26:00,
2013-01-26 22:31:00,13.8,3.5,30.00,WNW,297,4.0,5.8,63,0.00,CLR,SCT,0.00,WeatherDisplay:10.37,2013-01-27 03:31:00,
2013-01-26 22:36:00,13.7,3.8,30.00,West,270,4.6,9.2,64,0.00,CLR,SCT,0.00,WeatherDisplay:10.37,2013-01-27 03:36:00,
2013-01-26 22:41:00,13.6,3.7,30.01,WNW,300,3.7,5.8,64,0.00,CLR,SCT,0.00,WeatherDisplay:10.37,2013-01-27 03:41:00,
2013-01-26 22:46:00,13.7,3.8,30.01,WNW,286,3.8,5.8,64,0.00,CLR,SCT,0.00,WeatherDisplay:10.37,2013-01-27 03:46:00,
2013-01-26 22:51:00,13.5,3.9,30.01,NW,317,3.3,4.6,65,0.00,CLR,SCT,0.00,WeatherDisplay:10.37,2013-01-27 03:51:00,
2013-01-26 22:56:00,13.3,3.7,30.01,NW,313,2.3,4.6,65,0.00,CLR,SCT,0.00,WeatherDisplay:10.37,2013-01-27 03:56:00,
2013-01-26 23:01:00,13.1,4.2,30.01,NW,321,5.1,9.2,67,0.00,CLR,SCT,0.00,WeatherDisplay:10.37,2013-01-27 04:01:00,
2013-01-26 23:06:00,13.1,4.2,30.02,WNW,298,2.5,4.6,67,0.00,CLR,SCT,0.00,WeatherDisplay:10.37,2013-01-27 04:06:00,
2013-01-26 23:11:00,13.1,4.2,30.02,WNW,298,4.4,8.1,67,0.00,CLR,SCT,0.00,WeatherDisplay:10.37,2013-01-27 04:11:00,
2013-01-26 23:16:00,13.4,4.1,30.02,West,267,4.1,5.8,66,0.00,CLR,SCT,0.00,WeatherDisplay:10.37,2013-01-27 04:16:00,
2013-01-26 23:21:00,13.4,4.1,30.02,WNW,294,5.6,8.1,66,0.00,CLR,SCT,0.00,WeatherDisplay:10.37,2013-01-27 04:21:00,
2013-01-26 23:26:00,13.2,4.0,30.02,West,265,3.8,4.6,66,0.00,CLR,SCT,0.00,WeatherDisplay:10.37,2013-01-27 04:26:00,
2013-01-26 23:31:00,13.1,4.2,30.02,West,278,3.9,7.0,67,0.00,CLR,SCT,0.00,WeatherDisplay:10.37,2013-01-27 04:31:00,
2013-01-26 23:36:00,13.1,4.2,30.02,NW,312,3.4,5.8,67,0.00,CLR,SCT,0.00,WeatherDisplay:10.37,2013-01-27 04:36:00,
2013-01-26 23:41:00,13.1,4.2,30.02,NW,311,3.2,6.9,67,0.00,CLR,SCT,0.00,WeatherDisplay:10.37,2013-01-27 04:41:00,
2013-01-26 23:46:00,13.1,4.2,30.02,WNW,292,4.4,5.8,67,0.00,CLR,SCT,0.00,WeatherDisplay:10.37,2013-01-27 04:46:00,
2013-01-26 23:51:00,13.0,4.1,30.02,WNW,301,4.5,5.8,67,0.00,CLR,SCT,0.00,WeatherDisplay:10.37,2013-01-27 04:51:00,
2013-01-26 23:56:00,12.9,4.3,30.02,WNW,286,3.1,5.8,68,0.00,CLR,SCT,0.00,WeatherDisplay:10.37,2013-01-27 04:56:00,